Main page
METAR-TAF:

METAR-TAF

Airports :

Piacenza Air Base

Piacenza, Italy

latitude: 44-55N, longitude: 009-44E, elevation: 134 m

Current weather observation

The report was made 48 minutes ago, at 15:55 UTC
Wind 4 kt from the Southeast
Temperature 30°C
Humidity 52%
Pressure 1017 hPa
Visibility 10 km or more
Few clouds at a height of 6000 ft

METAR: LIMS 201555Z 14004KT 9999 FEW060 30/19 Q1017 RMK FEW VIS MIN 9999 WIND THR30 15004KT BLU

Time: 18:43 (16:43 UTC)


TAF: missing

Weather observations and forecasts of more than 4000 airports (METAR and TAF reports).

The available stations are represented by yellow and red dots on the map.

Hover mouse over dot to see the name of the station.

Then click to see weather observations and forecasts.

To change the map : click on the green buttons with a black cross to zoom in, on the green button with a dash to zoom out, or on the green arrows for adjacent maps.


METAR-TAF: